Time;durP1;ratioP1;P1;durP2;ratioP2;P2;SDS_P1;SDS_P2;PMS_P1;PMS_P2;Temp;Humidity;BMP_temperature;BMP_pressure;BME280_temperature;BME280_humidity;BME280_pressure;Samples;Min_cycle;Max_cycle;Signal;HPM_P1;HPM_P2
2023/03/09 00:02:37;;;;;;;28.30;16.10;;;;;;;-145.52;100.00;65322.94;5120088;28;20476;-60
2023/03/09 00:06:04;;;;;;;27.23;16.37;;;;;;;-145.52;100.00;65322.94;5127437;28;20446;-60
2023/03/09 00:09:29;;;;;;;26.60;17.87;;;;;;;-145.52;100.00;65322.94;5131761;27;20455;-60
2023/03/09 00:12:54;;;;;;;32.37;20.03;;;;;;;-145.52;100.00;65322.94;5120943;28;20528;-60
2023/03/09 00:16:19;;;;;;;32.27;17.67;;;;;;;-145.52;100.00;65322.94;5120635;28;20511;-60
2023/03/09 00:19:45;;;;;;;34.80;20.70;;;;;;;-145.52;100.00;65322.94;5120643;28;21044;-60
2023/03/09 00:23:12;;;;;;;26.77;17.10;;;;;;;-145.52;100.00;65322.94;5121228;28;20990;-60
2023/03/09 00:26:38;;;;;;;27.40;16.57;;;;;;;-145.52;100.00;65322.94;5121631;28;20991;-60
2023/03/09 00:30:04;;;;;;;27.87;16.50;;;;;;;-145.52;100.00;65322.94;5120766;28;20933;-60
2023/03/09 00:33:29;;;;;;;24.23;15.90;;;;;;;-145.52;100.00;65322.94;5100029;28;20490;-60
2023/03/09 00:36:55;;;;;;;27.33;17.20;;;;;;;-145.52;100.00;65322.94;5112109;28;20515;-60
2023/03/09 00:40:21;;;;;;;20.40;14.50;;;;;;;-145.52;100.00;65322.94;5102304;28;20441;-59
2023/03/09 00:43:46;;;;;;;23.33;15.70;;;;;;;-145.52;100.00;65322.94;5085882;28;20480;-60
2023/03/09 00:47:12;;;;;;;25.20;16.00;;;;;;;-145.52;100.00;65322.94;5071740;28;20900;-60
2023/03/09 00:50:37;;;;;;;22.67;15.27;;;;;;;-145.52;100.00;65322.94;5092448;28;20505;-60
2023/03/09 00:54:02;;;;;;;24.50;15.53;;;;;;;-145.52;100.00;65322.94;5083258;28;20471;-60
2023/03/09 00:57:29;;;;;;;23.83;15.37;;;;;;;-145.52;100.00;65322.94;5081527;28;20492;-60
2023/03/09 01:00:54;;;;;;;24.13;15.13;;;;;;;-145.52;100.00;65322.94;5095442;28;20472;-60
2023/03/09 01:04:19;;;;;;;24.67;15.80;;;;;;;-145.52;100.00;65322.94;5096344;28;20485;-60
2023/03/09 01:07:44;;;;;;;22.40;14.83;;;;;;;-145.52;100.00;65322.94;5062854;28;20527;-60
2023/03/09 01:11:11;;;;;;;25.70;15.27;;;;;;;-145.52;100.00;65322.94;5093227;28;20438;-60
2023/03/09 01:14:37;;;;;;;25.83;15.37;;;;;;;-145.52;100.00;65322.94;5092512;28;20460;-60
2023/03/09 01:18:03;;;;;;;20.27;13.77;;;;;;;-145.52;100.00;65322.94;5070914;28;20597;-61
2023/03/09 01:21:28;;;;;;;22.80;14.87;;;;;;;-145.52;100.00;65322.94;5103924;28;20491;-61
2023/03/09 01:24:53;;;;;;;22.37;14.40;;;;;;;-145.52;100.00;65322.94;5090116;28;20499;-60
2023/03/09 01:28:21;;;;;;;20.90;13.13;;;;;;;-145.52;100.00;65322.94;5084913;28;20503;-60
2023/03/09 01:31:47;;;;;;;24.10;14.50;;;;;;;-145.52;100.00;65322.94;5102967;28;20549;-60
2023/03/09 01:35:13;;;;;;;20.70;13.40;;;;;;;-145.52;100.00;65322.94;5095838;28;20449;-60
2023/03/09 01:38:38;;;;;;;21.03;14.80;;;;;;;-145.52;100.00;65322.94;5110136;28;20494;-60
2023/03/09 01:42:03;;;;;;;22.83;14.00;;;;;;;-145.52;100.00;65322.94;5114410;28;20463;-60
2023/03/09 01:45:47;;;;;;;21.60;14.43;;;;;;;-145.52;100.00;65322.94;5103274;28;20467;-60
2023/03/09 01:49:19;;;;;;;22.20;13.40;;;;;;;-145.52;100.00;65322.94;5143488;27;20546;-60
2023/03/09 01:52:47;;;;;;;25.10;15.33;;;;;;;-145.52;100.00;65322.94;5130044;27;20566;-60
2023/03/09 01:56:14;;;;;;;21.50;13.87;;;;;;;-145.52;100.00;65322.94;5123063;27;21016;-60
2023/03/09 01:59:39;;;;;;;21.20;13.97;;;;;;;-145.52;100.00;65322.94;5138251;27;20447;-60
2023/03/09 02:03:06;;;;;;;19.90;13.33;;;;;;;-145.52;100.00;65322.94;5129897;27;20534;-60
2023/03/09 02:06:34;;;;;;;21.57;12.73;;;;;;;-145.52;100.00;65322.94;5141513;27;20817;-60
2023/03/09 02:10:01;;;;;;;20.87;12.13;;;;;;;-145.52;100.00;65322.94;5141350;27;20435;-60
2023/03/09 02:13:29;;;;;;;15.50;10.57;;;;;;;-145.52;100.00;65322.94;5123802;27;20517;-62
2023/03/09 02:16:54;;;;;;;21.27;13.20;;;;;;;-145.52;100.00;65322.94;5137950;27;20523;-61
2023/03/09 02:20:25;;;;;;;19.00;13.47;;;;;;;-145.52;100.00;65322.94;5128281;27;20480;-61
2023/03/09 02:23:53;;;;;;;19.40;12.50;;;;;;;-145.52;100.00;65322.94;5134023;27;20470;-60
2023/03/09 02:27:22;;;;;;;21.07;12.70;;;;;;;-145.52;100.00;65322.94;5141077;27;20499;-60
2023/03/09 02:30:47;;;;;;;20.53;13.63;;;;;;;-145.52;100.00;65322.94;5126948;27;20979;-61
2023/03/09 02:34:22;;;;;;;18.70;12.30;;;;;;;-145.52;100.00;65322.94;5129904;27;20502;-60
2023/03/09 02:37:47;;;;;;;19.23;12.20;;;;;;;-145.52;100.00;65322.94;5132604;27;20479;-60
2023/03/09 02:41:13;;;;;;;18.20;12.20;;;;;;;-145.52;100.00;65322.94;5141499;27;20448;-60
2023/03/09 02:44:43;;;;;;;21.27;11.50;;;;;;;-145.52;100.00;65322.94;5141303;27;20976;-60
2023/03/09 02:48:13;;;;;;;17.43;10.90;;;;;;;-145.52;100.00;65322.94;5127502;27;20483;-60
2023/03/09 02:51:38;;;;;;;17.57;12.60;;;;;;;-145.52;100.00;65322.94;5127719;27;20462;-60
2023/03/09 02:55:03;;;;;;;14.70;9.87;;;;;;;-145.52;100.00;65322.94;5137753;27;20464;-60
2023/03/09 02:58:28;;;;;;;18.77;11.73;;;;;;;-145.52;100.00;65322.94;5126458;27;21003;-60
2023/03/09 03:01:55;;;;;;;15.70;10.60;;;;;;;-145.52;100.00;65322.94;5141900;27;20494;-60
2023/03/09 03:05:20;;;;;;;17.20;11.03;;;;;;;-145.52;100.00;65322.94;5123191;27;20458;-60
2023/03/09 03:08:46;;;;;;;19.27;11.80;;;;;;;-145.52;100.00;65322.94;5131730;27;21277;-60
2023/03/09 03:12:11;;;;;;;19.90;12.67;;;;;;;-145.52;100.00;65322.94;5122190;28;20888;-59
2023/03/09 03:15:36;;;;;;;20.60;13.13;;;;;;;-145.52;100.00;65322.94;5123273;27;20453;-60
2023/03/09 03:19:03;;;;;;;20.57;12.23;;;;;;;-145.52;100.00;65322.94;5122792;27;21036;-60
2023/03/09 03:22:28;;;;;;;18.60;12.43;;;;;;;-145.52;100.00;65322.94;5126628;27;20472;-60
2023/03/09 03:25:53;;;;;;;20.73;12.90;;;;;;;-145.52;100.00;65322.94;5128279;27;20464;-60
2023/03/09 03:29:18;;;;;;;21.90;14.90;;;;;;;-145.52;100.00;65322.94;5140776;27;20463;-60
2023/03/09 03:32:44;;;;;;;19.10;13.50;;;;;;;-145.52;100.00;65322.94;5126866;27;21024;-60
2023/03/09 03:36:10;;;;;;;20.87;14.27;;;;;;;-145.52;100.00;65322.94;5121449;28;20528;-60
2023/03/09 03:39:35;;;;;;;23.80;15.03;;;;;;;-145.52;100.00;65322.94;5131911;27;20472;-60
2023/03/09 03:43:00;;;;;;;23.57;15.37;;;;;;;-145.52;100.00;65322.94;5140020;27;20506;-60
2023/03/09 03:46:25;;;;;;;22.00;15.50;;;;;;;-145.52;100.00;65322.94;5141273;27;20475;-60
2023/03/09 03:49:50;;;;;;;18.73;13.03;;;;;;;-145.52;100.00;65322.94;5133441;27;20474;-60
2023/03/09 03:53:17;;;;;;;20.23;14.47;;;;;;;-145.52;100.00;65322.94;5117187;28;20573;-61
2023/03/09 03:56:43;;;;;;;21.70;14.53;;;;;;;-145.52;100.00;65322.94;5121056;28;20729;-60
2023/03/09 04:00:11;;;;;;;21.30;14.33;;;;;;;-145.52;100.00;65322.94;5127042;28;20471;-60
2023/03/09 04:03:36;;;;;;;20.70;14.17;;;;;;;-145.52;100.00;65322.94;5120763;28;20462;-60
2023/03/09 04:07:01;;;;;;;20.20;13.33;;;;;;;-145.52;100.00;65322.94;5120718;28;20974;-60
2023/03/09 04:10:28;;;;;;;23.40;15.20;;;;;;;-145.52;100.00;65322.94;5121343;28;20442;-60
2023/03/09 04:13:54;;;;;;;21.77;13.93;;;;;;;-145.52;100.00;65322.94;5121583;28;20989;-60
2023/03/09 04:17:19;;;;;;;24.87;15.93;;;;;;;-145.52;100.00;65322.94;5120402;28;20467;-60
2023/03/09 04:20:44;;;;;;;22.77;14.70;;;;;;;-145.52;100.00;65322.94;5121863;28;20467;-60
2023/03/09 04:24:10;;;;;;;22.57;14.30;;;;;;;-145.52;100.00;65322.94;5120911;28;20481;-60
2023/03/09 04:27:36;;;;;;;22.40;14.17;;;;;;;-145.52;100.00;65322.94;5120629;28;20479;-60
2023/03/09 04:31:01;;;;;;;22.07;13.80;;;;;;;-145.52;100.00;65322.94;5122197;28;20463;-60
2023/03/09 04:34:26;;;;;;;26.90;14.83;;;;;;;-145.52;100.00;65322.94;5120252;28;20487;-60
2023/03/09 04:37:52;;;;;;;22.90;13.60;;;;;;;-145.52;100.00;65322.94;5120301;28;20507;-60
2023/03/09 04:41:17;;;;;;;24.13;15.90;;;;;;;-145.52;100.00;65322.94;5120818;28;20478;-61
2023/03/09 04:44:45;;;;;;;20.27;13.70;;;;;;;-145.52;100.00;65322.94;5121518;28;20475;-60
2023/03/09 04:48:10;;;;;;;22.20;14.53;;;;;;;-145.52;100.00;65322.94;5119957;28;20540;-60
2023/03/09 04:51:35;;;;;;;26.03;14.63;;;;;;;-145.52;100.00;65322.94;5135742;27;20515;-59
2023/03/09 04:55:01;;;;;;;17.57;13.23;;;;;;;-145.52;100.00;65322.94;5125013;28;20444;-59
2023/03/09 04:58:26;;;;;;;19.27;12.80;;;;;;;-145.52;100.00;65322.94;5123619;28;20491;-59
2023/03/09 05:01:52;;;;;;;22.60;13.83;;;;;;;-145.52;100.00;65322.94;5127657;27;20508;-59
2023/03/09 05:05:18;;;;;;;22.80;14.37;;;;;;;-145.52;100.00;65322.94;5124466;28;20463;-59
2023/03/09 05:08:43;;;;;;;23.17;14.40;;;;;;;-145.52;100.00;65322.94;5124841;28;20969;-59
2023/03/09 05:12:08;;;;;;;21.17;13.20;;;;;;;-145.52;100.00;65322.94;5123869;28;20467;-59
2023/03/09 05:15:33;;;;;;;23.60;14.97;;;;;;;-145.52;100.00;65322.94;5115845;28;20501;-58
2023/03/09 05:19:00;;;;;;;23.03;14.70;;;;;;;-145.52;100.00;65322.94;5140372;27;20487;-59
2023/03/09 05:22:25;;;;;;;20.43;13.40;;;;;;;-145.52;100.00;65322.94;5123815;28;21086;-58
2023/03/09 05:25:56;;;;;;;23.43;15.73;;;;;;;-145.52;100.00;65322.94;5123341;28;20559;-59
2023/03/09 05:29:21;;;;;;;21.37;13.90;;;;;;;-145.52;100.00;65322.94;5120909;28;20476;-58
2023/03/09 05:32:46;;;;;;;21.33;14.00;;;;;;;-145.52;100.00;65322.94;5120366;27;20540;-58
2023/03/09 05:36:16;;;;;;;19.60;13.80;;;;;;;-145.52;100.00;65322.94;5120543;28;20442;-60
2023/03/09 05:39:42;;;;;;;23.37;13.90;;;;;;;-145.52;100.00;65322.94;5119605;28;20478;-60
2023/03/09 05:43:07;;;;;;;19.10;12.30;;;;;;;-145.52;100.00;65322.94;5121499;27;20504;-60
2023/03/09 05:46:32;;;;;;;22.80;15.50;;;;;;;-145.52;100.00;65322.94;5120510;28;20480;-60
2023/03/09 05:49:57;;;;;;;20.17;14.03;;;;;;;-145.52;100.00;65322.94;5132152;27;20500;-59
2023/03/09 05:53:24;;;;;;;22.63;14.60;;;;;;;-145.52;100.00;65322.94;5102540;27;20514;-60
2023/03/09 05:56:49;;;;;;;22.67;14.30;;;;;;;-145.52;100.00;65322.94;5121358;28;21027;-60
2023/03/09 06:00:15;;;;;;;24.80;15.30;;;;;;;-145.52;100.00;65322.94;5120826;28;20526;-60
2023/03/09 06:03:40;;;;;;;23.60;14.60;;;;;;;-145.52;100.00;65322.94;5122098;28;20451;-59
2023/03/09 06:07:05;;;;;;;26.80;17.00;;;;;;;-145.52;100.00;65322.94;5119834;28;20498;-60
2023/03/09 06:10:32;;;;;;;27.03;15.90;;;;;;;-145.52;100.00;65322.94;5121551;28;20467;-60
2023/03/09 06:13:57;;;;;;;33.23;17.53;;;;;;;-145.52;100.00;65322.94;5120188;28;20456;-60
2023/03/09 06:17:22;;;;;;;28.50;15.10;;;;;;;-145.52;100.00;65322.94;5113971;27;20502;-60
2023/03/09 06:20:47;;;;;;;26.10;15.43;;;;;;;-145.52;100.00;65322.94;5121163;28;20543;-60
2023/03/09 06:24:12;;;;;;;27.87;15.47;;;;;;;-145.52;100.00;65322.94;5120034;28;20456;-61
2023/03/09 06:27:39;;;;;;;27.60;16.63;;;;;;;-145.52;100.00;65322.94;5125987;27;20587;-61
2023/03/09 06:31:06;;;;;;;36.33;15.87;;;;;;;-145.52;100.00;65322.94;5121130;28;20751;-61
2023/03/09 06:34:31;;;;;;;33.90;17.87;;;;;;;-145.52;100.00;65322.94;5121383;28;20496;-61
2023/03/09 06:37:57;;;;;;;32.77;17.50;;;;;;;-145.52;100.00;65322.94;5116375;28;20487;-61
2023/03/09 06:41:29;;;;;;;32.90;17.30;;;;;;;-145.52;100.00;65322.94;5119341;28;20526;-60
2023/03/09 06:44:55;;;;;;;34.63;16.80;;;;;;;-145.52;100.00;65322.94;5121752;28;20437;-60
2023/03/09 06:48:21;;;;;;;27.47;15.47;;;;;;;-145.52;100.00;65322.94;5120136;27;20519;-60
2023/03/09 06:51:46;;;;;;;34.80;20.17;;;;;;;-145.52;100.00;65322.94;5121270;28;20466;-60
2023/03/09 06:55:13;;;;;;;34.17;18.57;;;;;;;-145.52;100.00;65322.94;5122257;27;20790;-60
2023/03/09 06:58:38;;;;;;;36.70;17.80;;;;;;;-145.52;100.00;65322.94;5120562;28;20495;-58
2023/03/09 07:02:09;;;;;;;35.43;17.77;;;;;;;-145.52;100.00;65322.94;5096786;28;20479;-58
2023/03/09 07:05:35;;;;;;;42.40;19.57;;;;;;;-145.52;100.00;65322.94;5108627;27;20657;-58
2023/03/09 07:09:00;;;;;;;36.37;17.93;;;;;;;-145.52;100.00;65322.94;5131528;27;20479;-58
2023/03/09 07:12:25;;;;;;;38.03;20.53;;;;;;;-145.52;100.00;65322.94;5108580;28;20492;-58
2023/03/09 07:15:50;;;;;;;31.20;18.63;;;;;;;-145.52;100.00;65322.94;5126047;27;20478;-58
2023/03/09 07:19:17;;;;;;;42.40;20.90;;;;;;;-145.52;100.00;65322.94;5083887;28;20482;-58
2023/03/09 07:22:42;;;;;;;37.80;18.57;;;;;;;-145.52;100.00;65322.94;5079647;28;20507;-58
2023/03/09 07:26:07;;;;;;;38.87;19.73;;;;;;;-145.52;100.00;65322.94;5108559;28;20473;-59
2023/03/09 07:29:33;;;;;;;40.30;20.30;;;;;;;-145.52;100.00;65322.94;5111988;28;20457;-58
2023/03/09 07:33:00;;;;;;;40.13;19.90;;;;;;;-145.52;100.00;65322.94;5103655;28;20622;-58
2023/03/09 07:36:26;;;;;;;41.93;20.97;;;;;;;-145.52;100.00;65322.94;5116171;28;20510;-59
2023/03/09 07:39:52;;;;;;;38.13;19.60;;;;;;;-145.52;100.00;65322.94;5118896;28;20447;-59
2023/03/09 07:43:17;;;;;;;38.53;19.37;;;;;;;-145.52;100.00;65322.94;5120034;28;20481;-59
2023/03/09 07:46:42;;;;;;;38.43;19.03;;;;;;;-145.52;100.00;65322.94;5131427;27;20532;-59
2023/03/09 07:50:08;;;;;;;38.93;20.33;;;;;;;-145.52;100.00;65322.94;5112459;28;20440;-59
2023/03/09 07:53:35;;;;;;;39.20;19.33;;;;;;;-145.52;100.00;65322.94;5103434;28;20453;-59
2023/03/09 07:57:01;;;;;;;38.33;20.70;;;;;;;-145.52;100.00;65322.94;5120731;28;20470;-60
2023/03/09 08:00:27;;;;;;;40.20;19.57;;;;;;;-145.52;100.00;65322.94;5119062;28;20444;-59
2023/03/09 08:03:53;;;;;;;44.10;21.37;;;;;;;-145.52;100.00;65322.94;5119413;28;20620;-61
2023/03/09 08:07:18;;;;;;;43.60;20.43;;;;;;;-145.52;100.00;65322.94;5119804;28;20509;-59
2023/03/09 08:10:47;;;;;;;39.17;20.17;;;;;;;-145.52;100.00;65322.94;5121168;28;20452;-58
2023/03/09 08:14:12;;;;;;;43.00;22.17;;;;;;;-145.52;100.00;65322.94;5120402;28;20448;-59
2023/03/09 08:17:38;;;;;;;39.87;20.07;;;;;;;-145.52;100.00;65322.94;5117605;28;20488;-58
2023/03/09 08:21:04;;;;;;;46.90;22.27;;;;;;;-145.52;100.00;65322.94;5108911;28;20476;-59
2023/03/09 08:24:30;;;;;;;40.90;20.20;;;;;;;-145.52;100.00;65322.94;5117883;28;20525;-60
2023/03/09 08:27:56;;;;;;;48.10;21.30;;;;;;;-145.52;100.00;65322.94;5111160;28;20486;-59
2023/03/09 08:31:23;;;;;;;51.20;19.53;;;;;;;-145.52;100.00;65322.94;5121650;28;20530;-60
2023/03/09 08:34:48;;;;;;;43.90;22.37;;;;;;;-145.52;100.00;65322.94;5123388;28;20449;-60
2023/03/09 08:38:14;;;;;;;50.77;22.10;;;;;;;-145.52;100.00;65322.94;5122451;28;20473;-59
2023/03/09 08:41:39;;;;;;;46.70;21.40;;;;;;;-145.52;100.00;65322.94;5123573;28;20485;-59
2023/03/09 08:45:07;;;;;;;47.70;22.00;;;;;;;-145.52;100.00;65322.94;5123495;28;20768;-59
2023/03/09 08:48:32;;;;;;;53.63;24.23;;;;;;;-145.52;100.00;65322.94;5122200;28;20452;-58
2023/03/09 08:51:59;;;;;;;50.90;24.97;;;;;;;-145.52;100.00;65322.94;5122682;28;20466;-59
2023/03/09 08:55:25;;;;;;;43.47;22.27;;;;;;;-145.52;100.00;65322.94;5122865;28;20440;-59
2023/03/09 08:58:51;;;;;;;53.17;26.50;;;;;;;-145.52;100.00;65322.94;5121657;28;20445;-60
2023/03/09 09:02:18;;;;;;;50.97;23.33;;;;;;;-145.52;100.00;65322.94;5123136;28;20477;-60
2023/03/09 09:05:43;;;;;;;44.37;21.87;;;;;;;-145.52;100.00;65322.94;5125903;27;20429;-60
2023/03/09 09:09:09;;;;;;;45.20;21.87;;;;;;;-145.52;100.00;65322.94;5123711;28;20454;-60
2023/03/09 09:12:37;;;;;;;47.20;22.57;;;;;;;-145.52;100.00;65322.94;5108873;28;21022;-61
2023/03/09 09:16:05;;;;;;;48.50;24.23;;;;;;;-145.52;100.00;65322.94;5107422;28;20543;-61
2023/03/09 09:19:31;;;;;;;46.03;21.23;;;;;;;-145.52;100.00;65322.94;5122583;28;20497;-61
2023/03/09 09:22:57;;;;;;;48.20;21.90;;;;;;;-145.52;100.00;65322.94;5122519;28;20505;-60
2023/03/09 09:26:22;;;;;;;46.47;23.70;;;;;;;-145.52;100.00;65322.94;5116554;28;20434;-61
2023/03/09 09:29:47;;;;;;;53.70;24.83;;;;;;;-145.52;100.00;65322.94;5102031;28;20437;-61
2023/03/09 09:33:13;;;;;;;54.30;23.47;;;;;;;-145.52;100.00;65322.94;5101596;28;20815;-61
2023/03/09 09:36:39;;;;;;;53.17;23.70;;;;;;;-145.52;100.00;65322.94;5108930;28;20540;-61
2023/03/09 09:40:05;;;;;;;45.67;20.70;;;;;;;-145.52;100.00;65322.94;5123036;28;20433;-61
2023/03/09 09:43:32;;;;;;;46.50;23.20;;;;;;;-145.52;100.00;65322.94;5134895;27;20507;-61
2023/03/09 09:46:59;;;;;;;45.40;21.70;;;;;;;-145.52;100.00;65322.94;5122026;28;20469;-61
2023/03/09 09:50:28;;;;;;;43.70;20.47;;;;;;;-145.52;100.00;65322.94;5123061;28;20520;-61
2023/03/09 09:53:59;;;;;;;49.37;21.97;;;;;;;-145.52;100.00;65322.94;5132480;27;20483;-61
2023/03/09 09:57:29;;;;;;;48.70;21.50;;;;;;;-145.52;100.00;65322.94;5135637;27;20466;-61
2023/03/09 10:00:57;;;;;;;44.77;20.77;;;;;;;-145.52;100.00;65322.94;5122235;28;20429;-61
2023/03/09 10:04:28;;;;;;;42.53;21.30;;;;;;;-145.52;100.00;65322.94;5135427;27;20481;-61
2023/03/09 10:07:57;;;;;;;46.13;19.93;;;;;;;-145.52;100.00;65322.94;5142144;27;20578;-61
2023/03/09 10:11:25;;;;;;;44.07;22.40;;;;;;;-145.52;100.00;65322.94;5142228;27;20468;-61
2023/03/09 10:14:53;;;;;;;46.60;21.03;;;;;;;-145.52;100.00;65322.94;5124187;27;20446;-61
2023/03/09 10:18:24;;;;;;;50.87;25.77;;;;;;;-145.52;100.00;65322.94;5120610;28;20474;-61
2023/03/09 10:21:51;;;;;;;42.03;21.90;;;;;;;-145.52;100.00;65322.94;5121631;28;20490;-61
2023/03/09 10:25:21;;;;;;;42.30;21.37;;;;;;;-145.52;100.00;65322.94;5102130;28;20430;-61
2023/03/09 10:28:49;;;;;;;41.60;20.77;;;;;;;-145.52;100.00;65322.94;5100448;28;20493;-61
2023/03/09 10:32:19;;;;;;;42.93;21.53;;;;;;;-145.52;100.00;65322.94;5100877;28;20474;-61
2023/03/09 10:35:53;;;;;;;37.97;20.13;;;;;;;-145.52;100.00;65322.94;5122261;28;20821;-61
2023/03/09 10:39:20;;;;;;;38.00;19.63;;;;;;;-145.52;100.00;65322.94;5100972;28;20447;-61
2023/03/09 10:42:45;;;;;;;43.10;23.57;;;;;;;-145.52;100.00;65322.94;5114127;28;20521;-61
2023/03/09 10:46:19;;;;;;;46.00;23.07;;;;;;;-145.52;100.00;65322.94;5121165;28;20423;-61
2023/03/09 10:49:57;;;;;;;48.73;23.77;;;;;;;-145.52;100.00;65322.94;5120657;28;20877;-61
2023/03/09 10:53:32;;;;;;;46.37;28.13;;;;;;;-145.52;100.00;65322.94;5120766;28;20502;-61
2023/03/09 10:57:21;;;;;;;42.57;22.60;;;;;;;-145.52;100.00;65322.94;5120359;28;20495;-61
2023/03/09 11:00:55;;;;;;;54.53;24.17;;;;;;;-145.52;100.00;65322.94;5121169;28;20435;-62
2023/03/09 11:04:34;;;;;;;40.30;21.07;;;;;;;-145.52;100.00;65322.94;5120920;28;20512;-61
2023/03/09 11:08:02;;;;;;;53.90;23.73;;;;;;;-145.52;100.00;65322.94;5120289;28;20469;-61
2023/03/09 11:11:29;;;;;;;37.43;22.00;;;;;;;-145.52;100.00;65322.94;5133056;27;20460;-61
2023/03/09 11:14:55;;;;;;;47.57;24.63;;;;;;;-145.52;100.00;65322.94;5141397;27;20426;-61
2023/03/09 11:18:27;;;;;;;32.10;18.53;;;;;;;-145.52;100.00;65322.94;5140340;27;20676;-61
2023/03/09 11:21:54;;;;;;;37.80;19.07;;;;;;;-145.52;100.00;65322.94;5125772;27;20976;-61
2023/03/09 11:25:23;;;;;;;37.30;20.20;;;;;;;-145.52;100.00;65322.94;5120829;28;20841;-61
2023/03/09 11:28:58;;;;;;;37.73;18.70;;;;;;;-145.52;100.00;65322.94;5119620;28;20454;-61
2023/03/09 11:32:24;;;;;;;37.23;19.37;;;;;;;-145.52;100.00;65322.94;5139188;27;20560;-62
2023/03/09 11:35:51;;;;;;;38.83;19.83;;;;;;;-145.52;100.00;65322.94;5121273;27;20462;-61
2023/03/09 11:39:18;;;;;;;37.10;19.70;;;;;;;-145.52;100.00;65322.94;5110141;28;20465;-61
2023/03/09 11:42:45;;;;;;;32.60;18.50;;;;;;;-145.52;100.00;65322.94;5119940;28;20636;-61
2023/03/09 11:46:15;;;;;;;31.40;18.63;;;;;;;-145.52;100.00;65322.94;5120254;28;20441;-62
2023/03/09 11:49:43;;;;;;;32.87;18.60;;;;;;;-145.52;100.00;65322.94;5099408;28;20483;-62
2023/03/09 11:53:18;;;;;;;30.20;17.20;;;;;;;-145.52;100.00;65322.94;5120227;28;20499;-61
2023/03/09 11:56:45;;;;;;;31.47;23.50;;;;;;;-145.52;100.00;65322.94;5119227;28;20475;-61
2023/03/09 12:00:16;;;;;;;30.33;18.37;;;;;;;-145.52;100.00;65322.94;5099711;28;20478;-61
2023/03/09 12:03:48;;;;;;;29.57;18.77;;;;;;;-145.52;100.00;65322.94;5100468;28;20509;-60
2023/03/09 12:07:23;;;;;;;26.23;18.03;;;;;;;-145.52;100.00;65322.94;5100036;28;20498;-61
2023/03/09 12:10:53;;;;;;;32.63;16.60;;;;;;;-145.52;100.00;65322.94;5111088;28;20475;-61
2023/03/09 12:14:22;;;;;;;28.13;17.50;;;;;;;-145.52;100.00;65322.94;5140543;27;20457;-61
2023/03/09 12:17:51;;;;;;;30.50;18.53;;;;;;;-145.52;100.00;65322.94;5140197;27;21120;-61
2023/03/09 12:21:31;;;;;;;29.93;20.60;;;;;;;-145.52;100.00;65322.94;5131390;28;20436;-61
2023/03/09 12:24:57;;;;;;;33.30;19.60;;;;;;;-145.52;100.00;65322.94;5120643;28;20494;-61
2023/03/09 12:28:23;;;;;;;26.37;17.80;;;;;;;-145.52;100.00;65322.94;5119042;28;20462;-61
2023/03/09 12:32:05;;;;;;;38.23;25.10;;;;;;;-145.52;100.00;65322.94;5131845;27;20504;-61
2023/03/09 12:35:56;;;;;;;27.57;16.20;;;;;;;-145.52;100.00;65322.94;5139623;27;20487;-62
2023/03/09 12:39:33;;;;;;;32.80;19.67;;;;;;;-145.52;100.00;65322.94;5140192;27;20465;-61
2023/03/09 12:43:14;;;;;;;43.03;19.40;;;;;;;-145.52;100.00;65322.94;5098605;28;20538;-62
2023/03/09 12:46:58;;;;;;;32.10;18.13;;;;;;;-145.52;100.00;65322.94;5099655;28;20996;-62
2023/03/09 12:50:27;;;;;;;31.80;17.97;;;;;;;-145.52;100.00;65322.94;5099732;28;20999;-62
2023/03/09 12:54:01;;;;;;;31.87;18.10;;;;;;;-145.52;100.00;65322.94;5141349;27;20433;-62
2023/03/09 12:57:27;;;;;;;36.40;25.43;;;;;;;-145.52;100.00;65322.94;5134923;27;20475;-62
2023/03/09 13:00:53;;;;;;;37.53;20.43;;;;;;;-145.52;100.00;65322.94;5120120;28;20466;-62
2023/03/09 13:04:22;;;;;;;27.63;18.23;;;;;;;-145.52;100.00;65322.94;5118654;28;20484;-61
2023/03/09 13:07:53;;;;;;;35.60;19.60;;;;;;;-145.52;100.00;65322.94;5119278;28;20505;-62
2023/03/09 13:11:21;;;;;;;32.67;20.00;;;;;;;-145.52;100.00;65322.94;5129799;27;20437;-63
2023/03/09 13:15:11;;;;;;;36.93;21.10;;;;;;;-145.52;100.00;65322.94;5143923;27;20451;-63
2023/03/09 13:18:39;;;;;;;34.70;18.83;;;;;;;-145.52;100.00;65322.94;5126149;27;20497;-62
2023/03/09 13:22:29;;;;;;;28.93;16.63;;;;;;;-145.52;100.00;65322.94;5129380;27;20696;-62
2023/03/09 13:26:23;;;;;;;32.93;17.20;;;;;;;-145.52;100.00;65322.94;5122745;28;20482;-63
2023/03/09 13:29:50;;;;;;;31.23;17.87;;;;;;;-145.52;100.00;65322.94;5121419;28;20451;-62
2023/03/09 13:33:22;;;;;;;34.10;18.13;;;;;;;-145.52;100.00;65322.94;5120151;28;20843;-62
2023/03/09 13:36:49;;;;;;;33.07;18.17;;;;;;;-145.52;100.00;65322.94;5122154;27;20475;-63
2023/03/09 13:40:29;;;;;;;35.17;19.40;;;;;;;-145.52;100.00;65322.94;5122131;28;20431;-63
2023/03/09 13:43:55;;;;;;;31.13;18.77;;;;;;;-145.52;100.00;65322.94;5121221;28;20545;-62
2023/03/09 13:47:26;;;;;;;33.10;18.70;;;;;;;-145.52;100.00;65322.94;5119825;28;20503;-63
2023/03/09 13:50:52;;;;;;;34.00;17.50;;;;;;;-145.52;100.00;65322.94;5122458;28;20485;-63
2023/03/09 13:54:27;;;;;;;36.83;20.20;;;;;;;-145.52;100.00;65322.94;5120494;28;20557;-63
2023/03/09 13:58:15;;;;;;;32.53;20.10;;;;;;;-145.52;100.00;65322.94;5120842;27;20538;-62
2023/03/09 14:01:49;;;;;;;32.67;19.50;;;;;;;-145.52;100.00;65322.94;5123389;27;20544;-62
2023/03/09 14:05:18;;;;;;;35.70;21.40;;;;;;;-145.52;100.00;65322.94;5122482;28;20483;-62
2023/03/09 14:08:46;;;;;;;39.53;20.10;;;;;;;-145.52;100.00;65322.94;5122189;27;20453;-61
2023/03/09 14:12:18;;;;;;;30.10;18.20;;;;;;;-145.52;100.00;65322.94;5102649;28;20503;-61
2023/03/09 14:15:44;;;;;;;28.27;17.00;;;;;;;-145.52;100.00;65322.94;5123015;28;20492;-62
2023/03/09 14:19:21;;;;;;;34.80;19.40;;;;;;;-145.52;100.00;65322.94;5121644;27;20455;-62
2023/03/09 14:22:49;;;;;;;32.30;17.53;;;;;;;-145.52;100.00;65322.94;5121329;28;20470;-62
2023/03/09 14:26:30;;;;;;;33.93;19.37;;;;;;;-145.52;100.00;65322.94;5121694;28;20546;-61
2023/03/09 14:30:32;;;;;;;36.73;19.47;;;;;;;-145.52;100.00;65322.94;5121805;27;20529;-62
2023/03/09 14:33:59;;;;;;;33.50;18.17;;;;;;;-145.52;100.00;65322.94;5118756;28;20458;-62
2023/03/09 14:37:25;;;;;;;33.03;18.20;;;;;;;-145.52;100.00;65322.94;5121711;28;20497;-61
2023/03/09 14:40:58;;;;;;;36.63;18.20;;;;;;;-145.52;100.00;65322.94;5120619;28;20449;-61
2023/03/09 14:44:38;;;;;;;32.90;18.50;;;;;;;-145.52;100.00;65322.94;5116934;28;20958;-62
2023/03/09 14:48:07;;;;;;;35.47;18.57;;;;;;;-145.52;100.00;65322.94;5119625;27;20508;-62
2023/03/09 14:51:34;;;;;;;37.67;18.93;;;;;;;-145.52;100.00;65322.94;5118225;28;20473;-61
2023/03/09 14:55:00;;;;;;;41.40;20.37;;;;;;;-145.52;100.00;65322.94;5120503;28;21005;-62
2023/03/09 14:58:26;;;;;;;40.30;21.07;;;;;;;-145.52;100.00;65322.94;5118928;28;20501;-62
2023/03/09 15:01:53;;;;;;;40.83;21.97;;;;;;;-145.52;100.00;65322.94;5119713;28;20512;-61
2023/03/09 15:05:21;;;;;;;42.40;21.97;;;;;;;-145.52;100.00;65322.94;5123349;27;20476;-62
2023/03/09 15:08:46;;;;;;;40.60;21.63;;;;;;;-145.52;100.00;65322.94;5122122;27;20482;-61
2023/03/09 15:12:12;;;;;;;31.03;19.63;;;;;;;-145.52;100.00;65322.94;5120976;28;20438;-62
2023/03/09 15:15:38;;;;;;;39.80;19.90;;;;;;;-145.52;100.00;65322.94;5123386;27;20459;-61
2023/03/09 15:19:05;;;;;;;35.63;19.97;;;;;;;-145.52;100.00;65322.94;5111900;28;20457;-61
2023/03/09 15:22:30;;;;;;;46.97;20.27;;;;;;;-145.52;100.00;65322.94;5119652;28;20500;-61
2023/03/09 15:25:55;;;;;;;37.03;20.27;;;;;;;-145.52;100.00;65322.94;5116362;27;20471;-61